航空気象通報

ウインドサーファーのための航空気象通報による風予報です。

3/24-3/25の航空気象通報(国内、海外)

2012年03月24日 22時27分43秒 | TAF

羽田空港
TAF RJTT 240840Z 2409/2512 30005KT 9999 FEW020
      BECMG 2409/2410 34018KT
      BECMG 2414/2416 30006KT
      BECMG 2418/2421 22008KT
      BECMG 2506/2509 34012KT
日本時間24日18時:300度から5ノットの風
18-19時:風が変化
19-23時:340度から18ノットの風
23時-25日01時:風が変化
01-03時:300度から6ノットの風
03-06時:風が変化
06-15時:220度から8ノットの風
15-18時:風が変化
18-21時:340度から12ノットの風

静岡空港
TAF RJNS 240841Z 2409/2512 27016KT 9999 FEW030
      TEMPO 2409/2412 27018G28KT
      TEMPO 2421/2506 27020G30KT
日本時間24日18時-25日21時:270度から16ノットの風
但し、24日18-21時の間:ときどき270度から18ノット、突風28ノット
但し、25日06-15時の間:ときどき270度から20ノット、突風30ノット

福岡空港
TAF RJFF 240839Z 2409/2512 28015KT 9999 FEW030 SCT045
      TEMPO 2409/2418 29017G27KT
      TEMPO 2500/2509 29016G26KT
日本時間24日18時-25日21時:280度から15ノットの風
但し、24日18時-25日03時の間:ときどき290度から17ノット、突風27ノット
但し、25日09-18時の間:ときどき290度から16ノット、突風26ノット

那覇空港
TAF ROAH 240838Z 2409/2512 01020KT 9999 FEW025 SCT040
日本時間24日18時-25日21時:010度から20ノットの風

マウイのカフルイ空港
TAF PHOG 241133Z 2412/2512 05011KT P6SM VCSH SCT040 BKN060
      TEMPO 2412/2414 05016G24KT
     FM241900 05018G28KT P6SM VCSH SCT040 BKN060
     FM251000 05011KT P6SM SCT040
      AMD LTD TO WX VIS AND WIND TIL 241600
ハワイ時間24日02-09時:050度から11ノットの風
但し、02-04時の間:ときどき050度から16ノット、突風24ノット
09-24時:050度から18ノット、突風28ノット

25日00-02時:050度から11ノットの風

サイパン空港
TAF PGSN 241122Z 2412/2512 09011KT P6SM VCSH SCT022
マリアナ時間24日22時-25日22時:090度から11ノットの風


コメント   この記事についてブログを書く
« 3/23-3/24の航空気象通報(国... | トップ | 3/25-3/26の航空気象通報(国... »
最近の画像もっと見る

コメントを投稿

ブログ作成者から承認されるまでコメントは反映されません。

TAF」カテゴリの最新記事